Time;durP1;ratioP1;P1;durP2;ratioP2;P2;SDS_P1;SDS_P2;PMS_P1;PMS_P2;Temp;Humidity;BMP_temperature;BMP_pressure;BME280_temperature;BME280_humidity;BME280_pressure;Samples;Min_cycle;Max_cycle;Signal;HPM_P1;HPM_P2
2023/09/23 00:01:36;;;;;;;;;;;20.20;99.90;;;;;;5059607;28;19962;-66
2023/09/23 00:04:03;;;;;;;;;;;20.30;99.90;;;;;;5059423;28;19905;-66
2023/09/23 00:06:29;;;;;;;;;;;20.30;99.90;;;;;;5059455;28;19913;-66
2023/09/23 00:08:55;;;;;;;;;;;20.20;99.90;;;;;;5059106;28;19909;-66
2023/09/23 00:11:21;;;;;;;;;;;20.20;99.90;;;;;;5059319;28;19984;-66
2023/09/23 00:13:47;;;;;;;;;;;20.20;99.90;;;;;;5059118;28;19909;-66
2023/09/23 00:16:15;;;;;;;;;;;20.10;99.90;;;;;;5059206;28;20362;-66
2023/09/23 00:18:43;;;;;;;;;;;20.10;99.90;;;;;;5059241;28;19909;-66
2023/09/23 00:21:09;;;;;;;;;;;20.10;99.90;;;;;;5059213;28;20000;-66
2023/09/23 00:23:35;;;;;;;;;;;20.10;99.90;;;;;;5059021;28;19909;-66
2023/09/23 00:26:01;;;;;;;;;;;20.10;99.90;;;;;;5059013;28;20297;-66
2023/09/23 00:28:28;;;;;;;;;;;20.10;99.90;;;;;;5058986;28;19909;-66
2023/09/23 00:31:01;;;;;;;;;;;20.10;99.90;;;;;;5058863;28;19999;-66
2023/09/23 00:33:27;;;;;;;;;;;20.10;99.90;;;;;;5058963;28;20237;-66
2023/09/23 00:35:52;;;;;;;;;;;20.00;99.90;;;;;;5041039;28;19913;-66
2023/09/23 00:38:19;;;;;;;;;;;20.10;99.90;;;;;;5040991;28;19909;-65
2023/09/23 00:40:46;;;;;;;;;;;20.10;99.90;;;;;;5058806;28;19909;-66
2023/09/23 00:43:13;;;;;;;;;;;20.10;99.90;;;;;;5058686;28;19912;-66
2023/09/23 00:45:45;;;;;;;;;;;20.10;99.90;;;;;;5058966;28;19909;-66
2023/09/23 00:48:11;;;;;;;;;;;20.00;99.90;;;;;;5058674;28;19923;-66
2023/09/23 00:50:37;;;;;;;;;;;19.90;99.90;;;;;;5058683;28;19948;-66
2023/09/23 00:53:04;;;;;;;;;;;19.90;99.90;;;;;;5058474;28;19908;-66
2023/09/23 00:55:32;;;;;;;;;;;19.90;99.90;;;;;;5058545;28;20316;-66
2023/09/23 00:58:03;;;;;;;;;;;20.00;99.90;;;;;;5044701;28;19912;-66
2023/09/23 01:00:31;;;;;;;;;;;19.90;99.90;;;;;;5077233;28;20300;-66
2023/09/23 01:02:59;;;;;;;;;;;19.90;99.90;;;;;;5078373;28;19908;-66
2023/09/23 01:05:29;;;;;;;;;;;19.90;99.90;;;;;;5078273;28;19916;-65
2023/09/23 01:07:56;;;;;;;;;;;20.00;99.90;;;;;;5078112;28;20281;-65
2023/09/23 01:10:22;;;;;;;;;;;19.90;99.90;;;;;;5077129;28;19908;-65
2023/09/23 01:12:47;;;;;;;;;;;19.80;99.90;;;;;;5078057;28;19909;-66
2023/09/23 01:15:18;;;;;;;;;;;19.80;99.90;;;;;;5078236;28;19912;-66
2023/09/23 01:17:44;;;;;;;;;;;19.70;99.90;;;;;;5078178;28;20301;-66
2023/09/23 01:20:13;;;;;;;;;;;19.80;99.90;;;;;;5076898;28;19994;-65
2023/09/23 01:22:40;;;;;;;;;;;19.80;99.90;;;;;;5078089;28;20391;-66
2023/09/23 01:25:06;;;;;;;;;;;19.80;99.90;;;;;;5060100;28;19904;-66
2023/09/23 01:27:34;;;;;;;;;;;19.90;99.90;;;;;;5077935;28;19913;-66
2023/09/23 01:30:05;;;;;;;;;;;19.80;99.90;;;;;;5078032;28;20470;-66
2023/09/23 01:32:37;;;;;;;;;;;19.70;99.90;;;;;;5076622;28;20003;-66
2023/09/23 01:35:03;;;;;;;;;;;19.70;99.90;;;;;;5077837;28;20265;-66
2023/09/23 01:37:29;;;;;;;;;;;19.80;99.90;;;;;;5076497;28;19909;-66
2023/09/23 01:39:55;;;;;;;;;;;19.70;99.90;;;;;;5077814;28;19908;-66
2023/09/23 01:42:21;;;;;;;;;;;19.80;99.90;;;;;;5077675;28;19942;-66
2023/09/23 01:44:48;;;;;;;;;;;19.80;99.90;;;;;;5077613;28;19944;-66
2023/09/23 01:47:16;;;;;;;;;;;19.70;99.90;;;;;;5077464;28;20369;-66
2023/09/23 01:49:42;;;;;;;;;;;19.50;99.90;;;;;;5076124;28;20027;-65
2023/09/23 01:52:08;;;;;;;;;;;19.50;99.90;;;;;;5077268;28;20437;-66
2023/09/23 01:54:34;;;;;;;;;;;19.50;99.90;;;;;;5077369;28;19951;-66
2023/09/23 01:57:02;;;;;;;;;;;19.50;99.90;;;;;;5076267;28;20353;-66
2023/09/23 01:59:28;;;;;;;;;;;19.50;99.90;;;;;;5060050;28;19958;-66
2023/09/23 02:01:54;;;;;;;;;;;19.50;99.90;;;;;;5038891;28;19912;-66
2023/09/23 02:04:20;;;;;;;;;;;19.60;99.90;;;;;;5039332;28;19995;-66
2023/09/23 02:06:46;;;;;;;;;;;19.60;99.90;;;;;;5038968;28;19919;-65
2023/09/23 02:09:11;;;;;;;;;;;19.50;99.90;;;;;;5039172;28;19912;-66
2023/09/23 02:11:37;;;;;;;;;;;19.50;99.90;;;;;;5039030;28;19909;-66
2023/09/23 02:14:06;;;;;;;;;;;19.50;99.90;;;;;;5056993;28;19908;-66
2023/09/23 02:16:32;;;;;;;;;;;19.50;99.90;;;;;;5039307;28;19909;-65
2023/09/23 02:18:59;;;;;;;;;;;19.60;99.90;;;;;;5039017;28;20263;-66
2023/09/23 02:21:27;;;;;;;;;;;19.50;99.90;;;;;;5056623;28;20017;-66
2023/09/23 02:23:55;;;;;;;;;;;19.50;99.90;;;;;;5038799;28;20424;-66
2023/09/23 02:26:22;;;;;;;;;;;19.60;99.90;;;;;;5057169;28;19999;-66
2023/09/23 02:28:48;;;;;;;;;;;19.50;99.90;;;;;;5056964;28;20022;-66
2023/09/23 02:31:15;;;;;;;;;;;19.30;99.90;;;;;;5056720;28;19930;-66
2023/09/23 02:33:40;;;;;;;;;;;19.30;99.90;;;;;;5038802;28;19915;-66
2023/09/23 02:36:06;;;;;;;;;;;19.20;99.90;;;;;;5056617;28;20293;-65
2023/09/23 02:38:32;;;;;;;;;;;19.30;99.90;;;;;;5038747;28;19909;-66
2023/09/23 02:41:03;;;;;;;;;;;19.40;99.90;;;;;;5038675;28;20364;-65
2023/09/23 02:43:29;;;;;;;;;;;19.30;99.90;;;;;;5038497;28;19969;-66
2023/09/23 02:46:00;;;;;;;;;;;19.30;99.90;;;;;;5056423;28;20331;-66
2023/09/23 02:48:26;;;;;;;;;;;19.20;99.90;;;;;;5056327;28;20422;-66
2023/09/23 02:50:53;;;;;;;;;;;19.30;99.90;;;;;;5056337;28;20371;-66
2023/09/23 02:53:19;;;;;;;;;;;19.30;99.90;;;;;;5056320;28;20277;-66
2023/09/23 02:55:51;;;;;;;;;;;19.20;99.90;;;;;;5056240;28;19909;-66
2023/09/23 02:58:18;;;;;;;;;;;19.20;99.90;;;;;;5062140;28;19952;-66
2023/09/23 03:00:57;;;;;;;;;;;19.20;99.90;;;;;;5076271;28;19908;-66
2023/09/23 03:03:23;;;;;;;;;;;19.10;99.90;;;;;;5076213;28;19915;-66
2023/09/23 03:05:54;;;;;;;;;;;19.20;99.90;;;;;;5076076;28;20269;-66
2023/09/23 03:08:22;;;;;;;;;;;19.20;99.90;;;;;;5076008;28;19985;-66
2023/09/23 03:10:49;;;;;;;;;;;19.20;99.90;;;;;;5074819;28;19915;-66
2023/09/23 03:13:17;;;;;;;;;;;19.00;99.90;;;;;;5075932;28;19904;-66
2023/09/23 03:15:48;;;;;;;;;;;18.90;99.90;;;;;;5076076;28;19954;-66
2023/09/23 03:18:27;;;;;;;;;;;18.90;99.90;;;;;;5074795;28;20392;-66
2023/09/23 03:20:57;;;;;;;;;;;19.00;99.90;;;;;;5075983;28;19908;-66
2023/09/23 03:23:23;;;;;;;;;;;18.90;99.90;;;;;;5057981;28;19912;-66
2023/09/23 03:25:51;;;;;;;;;;;18.90;99.90;;;;;;5074492;28;19971;-66
2023/09/23 03:28:17;;;;;;;;;;;18.90;99.90;;;;;;5057863;28;19912;-66
2023/09/23 03:30:47;;;;;;;;;;;18.90;99.90;;;;;;5074595;28;20427;-66
2023/09/23 03:33:14;;;;;;;;;;;19.00;99.90;;;;;;5073917;28;19946;-66
2023/09/23 03:35:40;;;;;;;;;;;19.00;99.90;;;;;;5057869;28;20002;-66
2023/09/23 03:38:06;;;;;;;;;;;19.10;99.90;;;;;;5074591;28;20046;-66
2023/09/23 03:40:32;;;;;;;;;;;18.90;99.90;;;;;;5075801;28;19958;-66
2023/09/23 03:43:01;;;;;;;;;;;19.00;99.90;;;;;;5075647;28;19909;-66
2023/09/23 03:45:27;;;;;;;;;;;19.10;99.90;;;;;;5057748;28;19974;-65
2023/09/23 03:47:53;;;;;;;;;;;19.00;99.90;;;;;;5074412;28;20285;-66
2023/09/23 03:50:19;;;;;;;;;;;18.80;99.90;;;;;;5074399;28;19908;-66
2023/09/23 03:52:45;;;;;;;;;;;18.80;99.90;;;;;;5075706;28;19912;-66
2023/09/23 03:55:13;;;;;;;;;;;18.80;99.90;;;;;;5075605;28;19958;-66
2023/09/23 03:57:39;;;;;;;;;;;18.80;99.90;;;;;;5056665;28;19912;-66
2023/09/23 04:00:20;;;;;;;;;;;19.00;99.90;;;;;;5037731;28;19947;-66
2023/09/23 04:02:49;;;;;;;;;;;19.00;99.90;;;;;;5055485;28;19908;-66
2023/09/23 04:05:15;;;;;;;;;;;19.00;99.90;;;;;;5055506;28;20363;-66
2023/09/23 04:07:41;;;;;;;;;;;19.00;99.90;;;;;;5037371;28;19935;-66
2023/09/23 04:10:08;;;;;;;;;;;18.80;99.90;;;;;;5055313;28;20370;-66
2023/09/23 04:12:34;;;;;;;;;;;18.80;99.90;;;;;;5055357;28;19909;-66
2023/09/23 04:14:59;;;;;;;;;;;18.70;99.90;;;;;;5055401;28;19920;-66
2023/09/23 04:17:26;;;;;;;;;;;18.60;99.90;;;;;;5055399;28;19909;-66
2023/09/23 04:19:54;;;;;;;;;;;18.60;99.90;;;;;;5055372;28;19948;-66
2023/09/23 04:22:20;;;;;;;;;;;18.70;99.90;;;;;;5055319;28;20067;-66
2023/09/23 04:24:46;;;;;;;;;;;18.70;99.90;;;;;;5055343;28;19943;-66
2023/09/23 04:27:11;;;;;;;;;;;18.70;99.90;;;;;;5055201;28;19920;-66
2023/09/23 04:29:37;;;;;;;;;;;18.70;99.90;;;;;;5055290;28;19909;-66
2023/09/23 04:32:04;;;;;;;;;;;18.60;99.90;;;;;;5055196;28;19908;-66
2023/09/23 04:34:35;;;;;;;;;;;18.60;99.90;;;;;;5055257;28;19905;-66
2023/09/23 04:37:01;;;;;;;;;;;18.70;99.90;;;;;;5055228;28;19987;-66
2023/09/23 04:39:27;;;;;;;;;;;18.70;99.90;;;;;;5055128;28;20378;-66
2023/09/23 04:41:52;;;;;;;;;;;18.60;99.90;;;;;;5055090;28;19975;-66
2023/09/23 04:44:18;;;;;;;;;;;18.70;99.90;;;;;;5039043;28;20317;-66
2023/09/23 04:46:45;;;;;;;;;;;18.80;99.90;;;;;;5058729;28;20349;-66
2023/09/23 04:49:11;;;;;;;;;;;18.70;99.90;;;;;;5058588;28;19996;-66
2023/09/23 04:51:38;;;;;;;;;;;18.70;99.90;;;;;;5058652;28;19951;-65
2023/09/23 04:54:04;;;;;;;;;;;18.60;99.90;;;;;;5058545;28;19908;-66
2023/09/23 04:56:29;;;;;;;;;;;18.50;99.90;;;;;;5058542;28;20259;-66
2023/09/23 04:58:58;;;;;;;;;;;18.60;99.90;;;;;;5069682;28;19905;-66
2023/09/23 05:01:24;;;;;;;;;;;18.60;99.90;;;;;;5077210;28;19919;-66
2023/09/23 05:03:52;;;;;;;;;;;18.60;99.90;;;;;;5078371;28;19912;-65
2023/09/23 05:06:18;;;;;;;;;;;18.60;99.90;;;;;;5078048;28;19912;-66
2023/09/23 05:08:43;;;;;;;;;;;18.70;99.90;;;;;;5078222;28;19918;-66
2023/09/23 05:11:11;;;;;;;;;;;18.80;99.90;;;;;;5078312;28;19912;-65
2023/09/23 05:13:37;;;;;;;;;;;18.80;99.90;;;;;;5078127;28;19908;-66
2023/09/23 05:16:03;;;;;;;;;;;18.80;99.90;;;;;;5078268;28;19954;-66
2023/09/23 05:18:29;;;;;;;;;;;18.90;99.90;;;;;;5078033;28;19919;-66
2023/09/23 05:20:55;;;;;;;;;;;19.10;99.90;;;;;;5078179;28;19948;-66
2023/09/23 05:23:23;;;;;;;;;;;19.10;99.90;;;;;;5078068;28;20008;-66
2023/09/23 05:25:50;;;;;;;;;;;19.20;99.90;;;;;;5078104;28;19908;-66
2023/09/23 05:28:16;;;;;;;;;;;19.40;99.90;;;;;;5077860;28;19912;-66
2023/09/23 05:30:41;;;;;;;;;;;19.40;99.90;;;;;;5078114;28;19916;-66
2023/09/23 05:33:08;;;;;;;;;;;19.40;99.90;;;;;;5078005;28;19909;-66
2023/09/23 05:35:35;;;;;;;;;;;19.40;99.90;;;;;;5077842;28;20053;-66
2023/09/23 05:38:01;;;;;;;;;;;19.40;99.90;;;;;;5077868;28;19951;-66
2023/09/23 05:40:27;;;;;;;;;;;19.50;99.90;;;;;;5077691;28;19912;-65
2023/09/23 05:42:53;;;;;;;;;;;19.60;99.90;;;;;;5077536;28;19908;-66
2023/09/23 05:45:23;;;;;;;;;;;19.70;99.90;;;;;;5077649;28;20353;-65
2023/09/23 05:47:49;;;;;;;;;;;19.80;99.90;;;;;;5077524;28;19912;-66
2023/09/23 05:50:15;;;;;;;;;;;19.90;99.90;;;;;;5077538;28;19912;-66
2023/09/23 05:52:41;;;;;;;;;;;20.10;99.90;;;;;;5077514;28;19908;-66
2023/09/23 05:55:08;;;;;;;;;;;20.20;99.90;;;;;;5076732;28;19954;-66
2023/09/23 05:57:40;;;;;;;;;;;20.40;99.90;;;;;;5077742;28;19908;-66
2023/09/23 06:00:08;;;;;;;;;;;20.50;99.90;;;;;;5057325;28;20323;-66
2023/09/23 06:02:34;;;;;;;;;;;20.70;99.90;;;;;;5057243;28;20357;-66
2023/09/23 06:05:01;;;;;;;;;;;20.70;99.90;;;;;;5057222;28;20496;-66
2023/09/23 06:07:31;;;;;;;;;;;20.80;99.90;;;;;;5057026;28;19922;-66
2023/09/23 06:09:59;;;;;;;;;;;20.90;99.90;;;;;;5057025;28;19908;-66
2023/09/23 06:12:29;;;;;;;;;;;21.00;99.90;;;;;;5056840;28;19921;-66
2023/09/23 06:14:58;;;;;;;;;;;21.10;99.90;;;;;;5057016;28;19908;-66
2023/09/23 06:17:24;;;;;;;;;;;21.10;99.90;;;;;;5056991;28;19905;-66
2023/09/23 06:19:51;;;;;;;;;;;21.20;99.90;;;;;;5056973;28;19909;-66
2023/09/23 06:22:17;;;;;;;;;;;21.30;99.90;;;;;;5056843;28;19999;-66
2023/09/23 06:24:43;;;;;;;;;;;21.30;99.90;;;;;;5056857;28;19959;-66
2023/09/23 06:27:09;;;;;;;;;;;21.40;99.90;;;;;;5056615;28;19913;-66
2023/09/23 06:29:34;;;;;;;;;;;21.40;99.80;;;;;;5056698;28;19920;-66
2023/09/23 06:32:00;;;;;;;;;;;21.40;99.90;;;;;;5056733;28;19909;-66
2023/09/23 06:34:26;;;;;;;;;;;21.50;99.90;;;;;;5056647;28;20280;-66
2023/09/23 06:36:52;;;;;;;;;;;21.50;99.70;;;;;;5056597;28;20370;-66
2023/09/23 06:39:17;;;;;;;;;;;21.50;99.50;;;;;;5056614;28;20273;-66
2023/09/23 06:41:45;;;;;;;;;;;21.50;99.30;;;;;;5038666;28;19919;-66
2023/09/23 06:44:10;;;;;;;;;;;21.50;99.70;;;;;;5056391;28;19947;-66
2023/09/23 06:46:36;;;;;;;;;;;21.60;99.50;;;;;;5056458;28;19915;-66
2023/09/23 06:49:02;;;;;;;;;;;21.60;99.30;;;;;;5056340;28;19909;-66
2023/09/23 06:51:28;;;;;;;;;;;21.60;99.20;;;;;;5056390;28;19955;-66
2023/09/23 06:53:54;;;;;;;;;;;21.70;99.00;;;;;;5056320;28;19919;-66
2023/09/23 06:56:20;;;;;;;;;;;21.70;99.00;;;;;;5056187;28;19908;-66
2023/09/23 06:58:46;;;;;;;;;;;21.70;99.00;;;;;;5066064;28;19909;-66
2023/09/23 07:01:11;;;;;;;;;;;21.70;99.40;;;;;;5076230;28;19908;-66
2023/09/23 07:03:37;;;;;;;;;;;21.70;99.00;;;;;;5076111;28;20373;-66
2023/09/23 07:06:03;;;;;;;;;;;21.80;98.90;;;;;;5076020;28;19912;-66
2023/09/23 07:08:29;;;;;;;;;;;21.70;98.90;;;;;;5074973;28;20090;-66
2023/09/23 07:10:55;;;;;;;;;;;21.50;99.20;;;;;;5076028;28;19916;-66
2023/09/23 07:13:21;;;;;;;;;;;21.60;99.10;;;;;;5075873;28;19909;-66
2023/09/23 07:15:46;;;;;;;;;;;21.70;99.00;;;;;;5076025;28;19916;-66
2023/09/23 07:18:14;;;;;;;;;;;21.70;99.00;;;;;;5075976;28;19904;-66
2023/09/23 07:20:40;;;;;;;;;;;21.70;99.20;;;;;;5075927;28;20281;-66
2023/09/23 07:23:05;;;;;;;;;;;21.80;99.20;;;;;;5075907;28;20008;-66
2023/09/23 07:25:38;;;;;;;;;;;21.90;99.20;;;;;;5075866;28;19908;-66
2023/09/23 07:28:07;;;;;;;;;;;21.90;99.30;;;;;;5075840;28;20018;-66
2023/09/23 07:30:34;;;;;;;;;;;21.90;99.50;;;;;;5075887;28;19995;-66
2023/09/23 07:33:00;;;;;;;;;;;21.90;99.70;;;;;;5075748;28;20255;-66
2023/09/23 07:35:32;;;;;;;;;;;21.80;99.90;;;;;;5075903;28;19958;-66
2023/09/23 07:38:01;;;;;;;;;;;21.80;99.80;;;;;;5075815;28;19908;-66
2023/09/23 07:40:28;;;;;;;;;;;21.80;99.90;;;;;;5075818;28;20391;-66
2023/09/23 07:42:54;;;;;;;;;;;21.70;99.80;;;;;;5075643;28;20141;-66
2023/09/23 07:45:20;;;;;;;;;;;21.90;99.90;;;;;;5075813;28;19948;-66
2023/09/23 07:47:45;;;;;;;;;;;21.90;99.70;;;;;;5075688;28;19938;-66
2023/09/23 07:50:11;;;;;;;;;;;22.00;99.90;;;;;;5075897;28;20002;-66
2023/09/23 07:52:37;;;;;;;;;;;22.10;99.70;;;;;;5075630;28;19915;-66
2023/09/23 07:55:04;;;;;;;;;;;22.20;99.70;;;;;;5075629;28;19978;-66
2023/09/23 07:57:32;;;;;;;;;;;22.30;99.40;;;;;;5075622;28;19948;-66
2023/09/23 07:59:58;;;;;;;;;;;22.40;99.10;;;;;;5055557;28;19974;-66
2023/09/23 08:02:24;;;;;;;;;;;22.50;98.50;;;;;;5055512;28;20320;-66
2023/09/23 08:04:49;;;;;;;;;;;22.60;98.30;;;;;;5055451;28;19916;-66
2023/09/23 08:07:15;;;;;;;;;;;22.60;98.20;;;;;;5055239;28;19913;-66
2023/09/23 08:09:41;;;;;;;;;;;22.80;98.10;;;;;;5055251;28;20015;-66
2023/09/23 08:12:07;;;;;;;;;;;22.90;97.40;;;;;;5055272;28;19916;-66
2023/09/23 08:14:33;;;;;;;;;;;22.70;97.30;;;;;;5055330;28;20281;-66
2023/09/23 08:16:58;;;;;;;;;;;22.90;98.50;;;;;;5055236;28;19915;-65
2023/09/23 08:19:24;;;;;;;;;;;23.60;97.10;;;;;;5039565;28;20008;-66
2023/09/23 08:21:50;;;;;;;;;;;24.20;96.20;;;;;;5059061;28;19905;-66
2023/09/23 08:24:16;;;;;;;;;;;25.10;93.60;;;;;;5059162;28;19909;-66
2023/09/23 08:26:41;;;;;;;;;;;25.50;92.50;;;;;;5059072;28;19909;-66
2023/09/23 08:29:07;;;;;;;;;;;26.10;87.50;;;;;;5059062;28;19940;-66
2023/09/23 08:31:33;;;;;;;;;;;26.20;85.00;;;;;;5058893;28;19909;-67
2023/09/23 08:33:59;;;;;;;;;;;26.70;80.70;;;;;;5059167;28;19905;-66
2023/09/23 08:36:24;;;;;;;;;;;27.10;79.10;;;;;;5058901;28;19955;-66
2023/09/23 08:38:50;;;;;;;;;;;27.10;73.70;;;;;;5058918;28;19909;-66
2023/09/23 08:41:18;;;;;;;;;;;26.90;72.60;;;;;;5058833;28;19912;-67
2023/09/23 08:43:44;;;;;;;;;;;27.00;70.00;;;;;;5058735;28;20385;-66
2023/09/23 08:46:11;;;;;;;;;;;26.50;70.60;;;;;;5058778;28;19911;-66
2023/09/23 08:48:37;;;;;;;;;;;26.40;72.90;;;;;;5058365;28;19913;-66
2023/09/23 08:51:06;;;;;;;;;;;26.10;70.70;;;;;;5058286;28;19919;-66
2023/09/23 08:53:37;;;;;;;;;;;25.70;73.70;;;;;;5058625;28;19905;-66
2023/09/23 08:56:04;;;;;;;;;;;25.50;72.90;;;;;;5058795;28;19908;-66
2023/09/23 08:58:30;;;;;;;;;;;25.60;71.60;;;;;;5066084;28;19908;-66
2023/09/23 09:00:56;;;;;;;;;;;25.70;72.20;;;;;;5078437;28;19987;-66
2023/09/23 09:03:22;;;;;;;;;;;25.90;72.40;;;;;;5078372;28;20273;-66
2023/09/23 09:05:48;;;;;;;;;;;26.00;72.20;;;;;;5078282;28;19909;-66
2023/09/23 09:08:14;;;;;;;;;;;25.90;70.50;;;;;;5078051;28;19912;-66
2023/09/23 09:10:41;;;;;;;;;;;25.20;72.20;;;;;;5078392;28;19905;-67
2023/09/23 09:13:07;;;;;;;;;;;25.50;71.30;;;;;;5078031;28;19905;-67
2023/09/23 09:15:33;;;;;;;;;;;25.40;71.40;;;;;;5078248;28;19916;-67
2023/09/23 09:18:01;;;;;;;;;;;25.70;71.90;;;;;;5078069;28;19930;-67
2023/09/23 09:20:28;;;;;;;;;;;25.60;71.30;;;;;;5078126;28;20002;-67
2023/09/23 09:22:53;;;;;;;;;;;25.70;71.50;;;;;;5078062;28;19999;-67
2023/09/23 09:25:20;;;;;;;;;;;25.80;71.00;;;;;;5078100;28;20366;-67
2023/09/23 09:27:50;;;;;;;;;;;26.00;70.30;;;;;;5077678;28;19912;-67
2023/09/23 09:30:16;;;;;;;;;;;25.90;69.20;;;;;;5076898;28;19909;-67
2023/09/23 09:32:43;;;;;;;;;;;25.60;69.80;;;;;;5077738;28;20278;-67
2023/09/23 09:35:13;;;;;;;;;;;25.70;71.20;;;;;;5077902;28;19953;-67
2023/09/23 09:37:41;;;;;;;;;;;25.90;70.20;;;;;;5077573;28;19946;-67
2023/09/23 09:40:09;;;;;;;;;;;25.70;69.60;;;;;;5077719;28;20455;-67
2023/09/23 09:42:37;;;;;;;;;;;25.80;69.70;;;;;;5077634;28;19919;-67
2023/09/23 09:45:04;;;;;;;;;;;25.90;69.60;;;;;;5077630;28;19912;-67
2023/09/23 09:47:30;;;;;;;;;;;26.10;69.70;;;;;;5077345;28;19912;-67
2023/09/23 09:49:57;;;;;;;;;;;26.50;70.10;;;;;;5076140;28;19958;-67
2023/09/23 09:52:26;;;;;;;;;;;26.60;68.40;;;;;;5077577;28;20411;-67
2023/09/23 09:54:56;;;;;;;;;;;26.90;68.30;;;;;;5077337;28;19909;-67
2023/09/23 09:57:22;;;;;;;;;;;27.20;65.90;;;;;;5077360;28;19962;-67
2023/09/23 09:59:48;;;;;;;;;;;27.50;65.30;;;;;;5058727;28;20269;-67
2023/09/23 10:02:17;;;;;;;;;;;27.30;63.50;;;;;;5057394;28;19909;-66
2023/09/23 10:04:46;;;;;;;;;;;27.40;64.20;;;;;;5057305;28;19909;-67
2023/09/23 10:07:12;;;;;;;;;;;28.00;64.60;;;;;;5056930;28;19926;-67
2023/09/23 10:09:48;;;;;;;;;;;28.40;64.30;;;;;;5056973;28;20304;-67
2023/09/23 10:12:14;;;;;;;;;;;28.70;62.90;;;;;;5056952;28;19909;-67
2023/09/23 10:14:40;;;;;;;;;;;28.90;61.40;;;;;;5057050;28;19916;-67
2023/09/23 10:17:07;;;;;;;;;;;29.00;60.40;;;;;;5057041;28;20106;-67
2023/09/23 10:19:37;;;;;;;;;;;28.80;58.20;;;;;;5056971;28;19909;-67
2023/09/23 10:22:19;;;;;;;;;;;29.00;59.30;;;;;;5056668;28;19909;-67
2023/09/23 10:24:46;;;;;;;;;;;28.90;59.00;;;;;;5056771;28;19913;-67
2023/09/23 10:27:13;;;;;;;;;;;28.80;58.50;;;;;;5057021;28;19939;-67
2023/09/23 10:29:47;;;;;;;;;;;28.50;59.90;;;;;;5056810;28;20384;-67
2023/09/23 10:32:16;;;;;;;;;;;28.70;59.50;;;;;;5056594;28;20357;-67
2023/09/23 10:34:49;;;;;;;;;;;28.40;59.60;;;;;;5056692;28;19905;-67
2023/09/23 10:37:24;;;;;;;;;;;28.50;60.00;;;;;;5056566;28;19920;-67
2023/09/23 10:39:50;;;;;;;;;;;28.40;58.50;;;;;;5056586;28;19939;-67
2023/09/23 10:42:15;;;;;;;;;;;28.10;60.10;;;;;;5056276;28;19908;-67
2023/09/23 10:44:41;;;;;;;;;;;28.20;60.00;;;;;;5056435;28;20251;-67
2023/09/23 10:47:08;;;;;;;;;;;28.20;59.00;;;;;;5056458;28;20003;-67
2023/09/23 10:49:35;;;;;;;;;;;28.00;59.60;;;;;;5056324;28;20428;-67
2023/09/23 10:52:01;;;;;;;;;;;28.10;60.90;;;;;;5056416;28;19909;-67
2023/09/23 10:54:28;;;;;;;;;;;28.10;59.70;;;;;;5056304;28;19913;-67
2023/09/23 10:56:53;;;;;;;;;;;28.00;59.80;;;;;;5056317;28;20003;-67
2023/09/23 10:59:19;;;;;;;;;;;27.80;60.00;;;;;;5070683;28;19928;-67
2023/09/23 11:01:45;;;;;;;;;;;27.70;60.90;;;;;;5076243;28;19912;-67
2023/09/23 11:04:11;;;;;;;;;;;27.50;63.00;;;;;;5076051;28;19904;-67
2023/09/23 11:06:37;;;;;;;;;;;27.50;63.00;;;;;;5075914;28;19912;-67
2023/09/23 11:09:06;;;;;;;;;;;27.50;63.20;;;;;;5075895;28;19912;-67
2023/09/23 11:11:36;;;;;;;;;;;27.60;62.30;;;;;;5076070;28;19905;-67
2023/09/23 11:14:02;;;;;;;;;;;27.20;63.70;;;;;;5076045;28;19908;-67
2023/09/23 11:16:28;;;;;;;;;;;27.50;63.80;;;;;;5076171;28;20356;-67
2023/09/23 11:18:55;;;;;;;;;;;27.00;65.00;;;;;;5075866;28;20354;-67
2023/09/23 11:21:21;;;;;;;;;;;27.00;65.30;;;;;;5075972;28;19991;-67
2023/09/23 11:23:57;;;;;;;;;;;27.10;64.90;;;;;;5075760;28;19910;-67
2023/09/23 11:26:23;;;;;;;;;;;27.00;65.40;;;;;;5075910;28;20273;-67
2023/09/23 11:28:49;;;;;;;;;;;27.30;63.20;;;;;;5075775;28;19913;-67
2023/09/23 11:31:14;;;;;;;;;;;26.80;66.40;;;;;;5075621;28;19912;-67
2023/09/23 11:33:40;;;;;;;;;;;26.70;65.20;;;;;;5076029;28;19948;-67
2023/09/23 11:36:06;;;;;;;;;;;26.60;66.80;;;;;;5074570;28;19909;-67
2023/09/23 11:38:32;;;;;;;;;;;26.30;66.80;;;;;;5075856;28;19904;-67
2023/09/23 11:40:59;;;;;;;;;;;26.30;67.50;;;;;;5075711;28;19952;-67
2023/09/23 11:43:25;;;;;;;;;;;26.40;67.50;;;;;;5075696;28;20038;-67
2023/09/23 11:45:50;;;;;;;;;;;26.60;66.40;;;;;;5075686;28;19966;-67
2023/09/23 11:48:17;;;;;;;;;;;26.60;67.80;;;;;;5075687;28;19912;-67
2023/09/23 11:50:43;;;;;;;;;;;26.50;67.10;;;;;;5075698;28;19909;-67
2023/09/23 11:53:11;;;;;;;;;;;26.30;67.90;;;;;;5075728;28;20006;-67
2023/09/23 11:55:37;;;;;;;;;;;25.90;69.40;;;;;;5079757;28;19958;-66
2023/09/23 11:58:03;;;;;;;;;;;25.90;69.00;;;;;;5075543;28;19947;-67
2023/09/23 12:00:29;;;;;;;;;;;26.20;69.20;;;;;;5059597;28;19909;-67
2023/09/23 12:02:54;;;;;;;;;;;26.30;68.30;;;;;;5059632;28;19951;-67
2023/09/23 12:05:21;;;;;;;;;;;26.50;68.00;;;;;;5059532;28;19909;-66
2023/09/23 12:07:47;;;;;;;;;;;26.40;68.50;;;;;;5059346;28;20333;-67
2023/09/23 12:10:15;;;;;;;;;;;26.50;68.10;;;;;;5059254;28;19920;-67
2023/09/23 12:12:43;;;;;;;;;;;26.50;67.90;;;;;;5059289;28;20010;-67
2023/09/23 12:15:09;;;;;;;;;;;26.50;67.90;;;;;;5059575;28;20385;-67
2023/09/23 12:17:35;;;;;;;;;;;26.50;67.40;;;;;;5059300;28;19920;-67
2023/09/23 12:20:01;;;;;;;;;;;26.20;67.60;;;;;;5059310;28;19909;-66
2023/09/23 12:22:27;;;;;;;;;;;26.10;67.30;;;;;;5059319;28;19913;-67
2023/09/23 12:24:52;;;;;;;;;;;25.90;66.70;;;;;;5059262;28;20421;-66
2023/09/23 12:27:19;;;;;;;;;;;25.80;67.80;;;;;;5059047;28;19920;-66
2023/09/23 12:29:45;;;;;;;;;;;25.50;68.60;;;;;;5059032;28;19912;-66
2023/09/23 12:32:11;;;;;;;;;;;25.50;67.00;;;;;;5059252;28;19909;-67
2023/09/23 12:34:37;;;;;;;;;;;25.20;67.40;;;;;;5058940;28;19915;-67
2023/09/23 12:37:04;;;;;;;;;;;24.90;68.40;;;;;;5058828;28;19909;-67
2023/09/23 12:39:30;;;;;;;;;;;24.60;69.40;;;;;;5058896;28;19912;-67
2023/09/23 12:41:56;;;;;;;;;;;24.50;70.00;;;;;;5058821;28;20429;-66
2023/09/23 12:44:23;;;;;;;;;;;24.20;71.60;;;;;;5058706;28;20408;-66
2023/09/23 12:46:48;;;;;;;;;;;23.90;72.70;;;;;;5058673;28;19963;-66
2023/09/23 12:49:14;;;;;;;;;;;23.80;72.30;;;;;;5058754;28;19909;-66
2023/09/23 12:51:43;;;;;;;;;;;23.60;72.60;;;;;;5058658;28;19915;-66
2023/09/23 12:54:09;;;;;;;;;;;23.60;71.90;;;;;;5058448;28;19909;-66
2023/09/23 12:56:35;;;;;;;;;;;23.60;72.80;;;;;;5058568;28;20393;-66
2023/09/23 12:59:01;;;;;;;;;;;23.50;73.60;;;;;;5070462;28;19958;-66
2023/09/23 13:01:27;;;;;;;;;;;23.30;76.10;;;;;;5078554;28;19912;-66
2023/09/23 13:03:53;;;;;;;;;;;23.20;76.60;;;;;;5078467;28;19916;-65
2023/09/23 13:06:19;;;;;;;;;;;23.00;79.50;;;;;;5078180;28;19927;-66
2023/09/23 13:08:44;;;;;;;;;;;22.80;81.40;;;;;;5077962;28;20372;-66
2023/09/23 13:11:10;;;;;;;;;;;22.50;84.20;;;;;;5078339;28;19943;-65
2023/09/23 13:13:36;;;;;;;;;;;22.30;87.40;;;;;;5078172;28;19962;-65
2023/09/23 13:16:02;;;;;;;;;;;21.90;91.20;;;;;;5078270;28;19966;-65
2023/09/23 13:18:30;;;;;;;;;;;21.40;94.60;;;;;;5078164;28;19940;-65
2023/09/23 13:20:56;;;;;;;;;;;21.20;98.50;;;;;;5078077;28;19932;-65
2023/09/23 13:23:22;;;;;;;;;;;20.80;99.90;;;;;;5077894;28;19904;-66
2023/09/23 13:25:48;;;;;;;;;;;20.50;99.90;;;;;;5077971;28;19909;-65
2023/09/23 13:28:16;;;;;;;;;;;20.30;99.90;;;;;;5077895;28;19908;-65
2023/09/23 13:30:42;;;;;;;;;;;20.10;99.90;;;;;;5077950;28;20281;-65
2023/09/23 13:33:08;;;;;;;;;;;19.80;99.90;;;;;;5077844;28;19968;-65
2023/09/23 13:35:35;;;;;;;;;;;19.70;99.90;;;;;;5077809;28;19909;-65
2023/09/23 13:38:01;;;;;;;;;;;19.60;99.90;;;;;;5077768;28;19904;-65
2023/09/23 13:40:27;;;;;;;;;;;19.50;99.90;;;;;;5077705;28;19966;-66
2023/09/23 13:42:53;;;;;;;;;;;19.50;99.90;;;;;;5077541;28;20403;-66
2023/09/23 13:45:19;;;;;;;;;;;19.60;99.90;;;;;;5077725;28;19947;-65
2023/09/23 13:47:45;;;;;;;;;;;19.60;99.90;;;;;;5077336;28;19994;-65
2023/09/23 13:50:11;;;;;;;;;;;19.60;99.90;;;;;;5077544;28;19908;-65
2023/09/23 13:52:37;;;;;;;;;;;19.60;99.90;;;;;;5077501;28;19961;-65
2023/09/23 13:55:04;;;;;;;;;;;19.60;99.90;;;;;;5077417;28;19935;-66
2023/09/23 13:57:30;;;;;;;;;;;19.40;99.90;;;;;;5077204;28;19904;-66
2023/09/23 13:59:56;;;;;;;;;;;18.70;99.90;;;;;;5057694;28;19931;-65
2023/09/23 14:02:22;;;;;;;;;;;18.70;99.90;;;;;;5057412;28;19909;-65
2023/09/23 14:04:47;;;;;;;;;;;18.80;99.90;;;;;;5057137;28;19927;-66
2023/09/23 14:07:13;;;;;;;;;;;18.70;99.90;;;;;;5057104;28;20019;-65
2023/09/23 14:09:39;;;;;;;;;;;18.80;99.90;;;;;;5057093;28;19915;-65
2023/09/23 14:12:06;;;;;;;;;;;18.60;99.90;;;;;;5057036;28;19962;-65
2023/09/23 14:14:32;;;;;;;;;;;18.80;99.90;;;;;;5057214;28;19952;-65